createdAt,value
2019-03-13T00:00:18.392Z,5.14
2019-03-13T00:01:29.125Z,5.09
2019-03-13T00:02:39.885Z,5.05
2019-03-13T00:03:50.630Z,5.00
2019-03-13T00:05:01.359Z,4.97
2019-03-13T00:06:12.087Z,4.92
2019-03-13T00:07:22.823Z,4.88
2019-03-13T00:08:33.564Z,4.84
2019-03-13T00:09:44.300Z,4.82
2019-03-13T00:10:55.034Z,4.79
2019-03-13T00:12:06.811Z,4.77
2019-03-13T00:13:17.653Z,4.74
2019-03-13T00:14:28.386Z,4.72
2019-03-13T00:15:39.109Z,4.70
2019-03-13T00:16:49.842Z,4.68
2019-03-13T00:18:00.586Z,4.66
2019-03-13T00:19:11.649Z,4.65
2019-03-13T00:20:22.384Z,4.64
2019-03-13T00:21:33.101Z,4.63
2019-03-13T00:22:43.825Z,4.60
2019-03-13T00:23:55.643Z,4.59
2019-03-13T00:25:06.370Z,4.56
2019-03-13T00:26:17.099Z,4.52
2019-03-13T00:27:27.823Z,4.48
2019-03-13T00:28:38.551Z,4.45
2019-03-13T00:29:49.274Z,4.40
2019-03-13T00:30:59.999Z,4.35
2019-03-13T00:32:10.720Z,4.30
2019-03-13T00:33:22.437Z,4.27
2019-03-13T00:34:33.154Z,4.23
2019-03-13T00:35:43.872Z,4.20
2019-03-13T00:36:54.581Z,4.16
2019-03-13T00:38:05.305Z,4.12
2019-03-13T00:39:16.030Z,4.09
2019-03-13T00:40:26.736Z,4.07
2019-03-13T00:41:37.458Z,4.04
2019-03-13T00:42:48.170Z,4.04
2019-03-13T00:43:58.888Z,4.03
2019-03-13T00:45:10.598Z,4.03
2019-03-13T00:46:21.308Z,4.04
2019-03-13T00:47:32.025Z,4.04
2019-03-13T00:48:42.759Z,4.05
2019-03-13T00:49:53.636Z,4.08
2019-03-13T00:51:04.344Z,4.11
2019-03-13T00:52:15.053Z,4.15
2019-03-13T00:53:25.774Z,4.17
2019-03-13T00:54:37.644Z,4.19
2019-03-13T00:55:48.350Z,4.20
2019-03-13T00:56:59.063Z,4.20
2019-03-13T00:58:09.770Z,4.19
2019-03-13T00:59:20.486Z,4.19
2019-03-13T01:00:31.192Z,4.19
2019-03-13T01:01:41.906Z,4.19
2019-03-13T01:02:52.621Z,4.19
2019-03-13T01:04:03.326Z,4.18
2019-03-13T01:05:14.042Z,4.16
2019-03-13T01:06:24.762Z,4.14
2019-03-13T01:07:35.635Z,4.11
2019-03-13T01:08:46.350Z,4.07
2019-03-13T01:09:57.063Z,4.02
2019-03-13T01:11:07.791Z,3.96
2019-03-13T01:12:18.495Z,3.91
2019-03-13T01:13:29.197Z,3.86
2019-03-13T01:14:39.912Z,3.83
2019-03-13T01:15:50.617Z,3.79
2019-03-13T01:17:01.319Z,3.76
2019-03-13T01:18:12.021Z,3.73
2019-03-13T01:19:22.744Z,3.68
2019-03-13T01:20:33.454Z,3.65
2019-03-13T01:21:44.153Z,3.61
2019-03-13T01:22:54.863Z,3.58
2019-03-13T01:24:05.561Z,3.57
2019-03-13T01:25:16.276Z,3.55
2019-03-13T01:26:26.973Z,3.53
2019-03-13T01:27:37.671Z,3.50
2019-03-13T01:28:48.372Z,3.49
2019-03-13T01:29:59.094Z,3.46
2019-03-13T01:31:09.808Z,3.45
2019-03-13T01:32:20.513Z,3.45
2019-03-13T01:33:31.208Z,3.44
2019-03-13T01:34:41.915Z,3.42
2019-03-13T01:35:52.620Z,3.40
2019-03-13T01:37:03.322Z,3.38
2019-03-13T01:38:14.022Z,3.34
2019-03-13T01:39:24.720Z,3.32
2019-03-13T01:40:35.429Z,3.30
2019-03-13T01:41:46.123Z,3.28
2019-03-13T01:42:56.827Z,3.26
2019-03-13T01:44:07.526Z,3.23
2019-03-13T01:45:18.221Z,3.19
2019-03-13T01:46:28.919Z,3.17
2019-03-13T01:47:39.617Z,3.17
2019-03-13T01:48:50.316Z,3.18
2019-03-13T01:50:01.014Z,3.18
2019-03-13T01:51:11.715Z,3.16
2019-03-13T01:52:22.405Z,3.17
2019-03-13T01:53:33.097Z,3.19
2019-03-13T01:54:43.800Z,3.21
2019-03-13T01:55:54.501Z,3.22
2019-03-13T01:57:05.199Z,3.22
2019-03-13T01:58:15.893Z,3.22
2019-03-13T01:59:26.614Z,3.22
2019-03-13T02:00:37.312Z,3.21
2019-03-13T02:01:48.002Z,3.20
2019-03-13T02:02:58.700Z,3.18
2019-03-13T02:04:09.397Z,3.15
2019-03-13T02:05:20.108Z,3.16
2019-03-13T02:06:30.804Z,3.16
2019-03-13T02:07:41.491Z,3.17
2019-03-13T02:08:52.193Z,3.16
2019-03-13T02:10:02.886Z,3.16
2019-03-13T02:11:13.586Z,3.17
2019-03-13T02:12:24.280Z,3.18
2019-03-13T02:13:34.983Z,3.18
2019-03-13T02:14:45.675Z,3.19
2019-03-13T02:15:56.385Z,3.20
2019-03-13T02:17:07.071Z,3.20
2019-03-13T02:18:17.766Z,3.19
2019-03-13T02:19:28.483Z,3.18
2019-03-13T02:20:39.176Z,3.17
2019-03-13T02:21:49.874Z,3.15
2019-03-13T02:23:00.565Z,3.14
2019-03-13T02:24:11.246Z,3.13
2019-03-13T02:25:21.929Z,3.11
2019-03-13T02:26:32.626Z,3.09
2019-03-13T02:27:43.322Z,3.09
2019-03-13T02:28:54.011Z,3.09
2019-03-13T02:30:04.696Z,3.09
2019-03-13T02:31:15.390Z,3.10
2019-03-13T02:32:26.091Z,3.10
2019-03-13T02:33:36.769Z,3.11
2019-03-13T02:34:47.631Z,3.10
2019-03-13T02:35:58.325Z,3.11
2019-03-13T02:37:09.017Z,3.14
2019-03-13T02:38:19.711Z,3.15
2019-03-13T02:39:30.405Z,3.16
2019-03-13T02:40:41.084Z,3.15
2019-03-13T02:41:51.775Z,3.15
2019-03-13T02:43:02.754Z,3.15
2019-03-13T02:44:13.456Z,3.16
2019-03-13T02:45:24.125Z,3.16
2019-03-13T02:46:34.817Z,3.17
2019-03-13T02:47:45.515Z,3.15
2019-03-13T02:48:56.214Z,3.15
2019-03-13T02:50:06.897Z,3.13
2019-03-13T02:51:17.590Z,3.10
2019-03-13T02:52:28.286Z,3.07
2019-03-13T02:53:38.967Z,3.06
2019-03-13T02:54:49.661Z,3.03
2019-03-13T02:56:00.349Z,3.02
2019-03-13T02:57:11.038Z,3.00
2019-03-13T02:58:21.734Z,2.98
2019-03-13T02:59:32.421Z,2.96
2019-03-13T03:00:43.104Z,2.91
2019-03-13T03:01:53.793Z,2.88
2019-03-13T03:03:04.621Z,2.88
2019-03-13T03:04:15.300Z,2.89
2019-03-13T03:05:25.984Z,2.88
2019-03-13T03:06:36.672Z,2.87
2019-03-13T03:07:47.358Z,2.85
2019-03-13T03:08:58.048Z,2.83
2019-03-13T03:10:08.727Z,2.81
2019-03-13T03:11:19.414Z,2.81
2019-03-13T03:12:30.117Z,2.81
2019-03-13T03:13:40.810Z,2.79
2019-03-13T03:14:51.492Z,2.75
2019-03-13T03:16:02.179Z,2.72
2019-03-13T03:17:12.863Z,2.69
2019-03-13T03:18:23.563Z,2.67
2019-03-13T03:19:34.238Z,2.64
2019-03-13T03:20:44.933Z,2.62
2019-03-13T03:21:56.601Z,2.60
2019-03-13T03:23:07.297Z,2.59
2019-03-13T03:24:17.974Z,2.57
2019-03-13T03:25:29.655Z,2.56
2019-03-13T03:26:40.331Z,2.54
2019-03-13T03:27:51.016Z,2.54
2019-03-13T03:29:02.703Z,2.55
2019-03-13T03:30:13.379Z,2.56
2019-03-13T03:31:24.059Z,2.58
2019-03-13T03:32:34.800Z,2.61
2019-03-13T03:33:45.428Z,2.65
2019-03-13T03:34:56.376Z,2.73
2019-03-13T03:36:06.791Z,2.81
2019-03-13T03:37:17.463Z,2.90
2019-03-13T03:38:28.149Z,2.97
2019-03-13T03:39:38.823Z,3.03
2019-03-13T03:40:49.506Z,3.09
2019-03-13T03:42:00.178Z,3.14
2019-03-13T03:43:10.885Z,3.17
2019-03-13T03:44:21.552Z,3.19
2019-03-13T03:45:32.234Z,3.23
2019-03-13T03:46:42.908Z,3.27
2019-03-13T03:47:54.623Z,3.33
2019-03-13T03:49:05.311Z,3.39
2019-03-13T03:50:16.300Z,3.37
2019-03-13T03:51:26.967Z,3.39
2019-03-13T03:52:37.646Z,3.40
2019-03-13T03:53:48.339Z,3.40
2019-03-13T03:54:59.016Z,3.38
2019-03-13T03:56:09.698Z,3.37
2019-03-13T03:57:20.376Z,3.37
2019-03-13T03:58:31.073Z,3.37
2019-03-13T03:59:41.744Z,3.36
2019-03-13T04:00:52.425Z,3.36
2019-03-13T04:02:03.107Z,3.37
2019-03-13T04:03:13.797Z,3.37
2019-03-13T04:04:24.662Z,3.39
2019-03-13T04:05:35.327Z,3.40
2019-03-13T04:06:46.014Z,3.43
2019-03-13T04:07:56.693Z,3.43
2019-03-13T04:09:07.385Z,3.46
2019-03-13T04:10:18.067Z,3.49
2019-03-13T04:11:28.757Z,3.51
2019-03-13T04:12:39.441Z,3.53
2019-03-13T04:13:50.142Z,3.55
2019-03-13T04:15:00.818Z,3.55
2019-03-13T04:16:11.504Z,3.55
2019-03-13T04:17:22.194Z,3.54
2019-03-13T04:18:32.877Z,3.52
2019-03-13T04:19:43.577Z,3.48
2019-03-13T04:20:54.266Z,3.45
2019-03-13T04:22:04.953Z,3.41
2019-03-13T04:23:15.646Z,3.38
2019-03-13T04:24:26.320Z,3.37
2019-03-13T04:25:37.012Z,3.36
2019-03-13T04:26:47.691Z,3.36
2019-03-13T04:27:58.372Z,3.36
2019-03-13T04:29:09.066Z,3.39
2019-03-13T04:30:19.754Z,3.41
2019-03-13T04:31:30.434Z,3.44
2019-03-13T04:32:41.117Z,3.46
2019-03-13T04:33:51.797Z,3.46
2019-03-13T04:35:02.629Z,3.45
2019-03-13T04:36:13.311Z,3.45
2019-03-13T04:37:24.003Z,3.46
2019-03-13T04:38:34.692Z,3.46
2019-03-13T04:39:45.390Z,3.46
2019-03-13T04:40:56.392Z,3.45
2019-03-13T04:42:07.075Z,3.45
2019-03-13T04:43:17.763Z,3.43
2019-03-13T04:44:28.457Z,3.41
2019-03-13T04:45:39.141Z,3.39
2019-03-13T04:46:49.819Z,3.37
2019-03-13T04:48:00.523Z,3.35
2019-03-13T04:49:11.219Z,3.31
2019-03-13T04:50:21.909Z,3.30
2019-03-13T04:51:32.593Z,3.29
2019-03-13T04:52:43.272Z,3.29
2019-03-13T04:53:54.951Z,3.27
2019-03-13T04:55:05.653Z,3.26
2019-03-13T04:56:16.343Z,3.26
2019-03-13T04:57:27.022Z,3.25
2019-03-13T04:58:37.712Z,3.23
2019-03-13T04:59:48.401Z,3.21
2019-03-13T05:00:59.099Z,3.19
2019-03-13T05:02:09.772Z,3.16
2019-03-13T05:03:20.959Z,3.11
2019-03-13T05:04:31.646Z,3.07
2019-03-13T05:05:42.338Z,3.03
2019-03-13T05:06:53.014Z,3.01
2019-03-13T05:08:03.713Z,2.96
2019-03-13T05:09:14.394Z,2.93
2019-03-13T05:10:25.074Z,2.90
2019-03-13T05:11:35.761Z,2.86
2019-03-13T05:12:46.473Z,2.82
2019-03-13T05:13:57.140Z,2.81
2019-03-13T05:15:07.838Z,2.79
2019-03-13T05:16:18.517Z,2.77
2019-03-13T05:17:29.193Z,2.74
2019-03-13T05:18:39.873Z,2.72
2019-03-13T05:19:51.549Z,2.70
2019-03-13T05:21:02.554Z,2.67
2019-03-13T05:22:13.230Z,2.66
2019-03-13T05:23:23.914Z,2.63
2019-03-13T05:24:34.594Z,2.60
2019-03-13T05:25:45.284Z,2.58
2019-03-13T05:26:55.952Z,2.56
2019-03-13T05:28:07.159Z,2.54
2019-03-13T05:29:17.804Z,2.52
2019-03-13T05:30:28.646Z,2.51
2019-03-13T05:31:39.328Z,2.51
2019-03-13T05:32:50.014Z,2.52
2019-03-13T05:34:00.695Z,2.56
2019-03-13T05:35:11.381Z,2.60
2019-03-13T05:36:22.059Z,2.66
2019-03-13T05:37:32.739Z,2.70
2019-03-13T05:38:43.429Z,2.74
2019-03-13T05:39:54.087Z,2.79
2019-03-13T05:41:04.774Z,2.84
2019-03-13T05:42:15.442Z,2.88
2019-03-13T05:43:26.140Z,2.93
2019-03-13T05:44:36.817Z,2.99
2019-03-13T05:45:47.501Z,3.04
2019-03-13T05:46:58.179Z,3.11
2019-03-13T05:48:08.944Z,3.17
2019-03-13T05:49:20.023Z,3.22
2019-03-13T05:50:31.742Z,3.27
2019-03-13T05:51:41.378Z,3.31
2019-03-13T05:52:52.058Z,3.34
2019-03-13T05:54:02.739Z,3.36
2019-03-13T05:55:13.412Z,3.39
2019-03-13T05:56:24.102Z,3.42
2019-03-13T05:57:34.777Z,3.46
2019-03-13T05:58:45.463Z,3.50
2019-03-13T05:59:56.136Z,3.54
2019-03-13T06:01:06.813Z,3.57
2019-03-13T06:02:17.502Z,3.61
2019-03-13T06:03:28.171Z,3.65
2019-03-13T06:04:38.849Z,3.69
2019-03-13T06:05:49.656Z,3.75
2019-03-13T06:07:00.341Z,3.80
2019-03-13T06:08:11.019Z,3.82
2019-03-13T06:09:21.715Z,3.83
2019-03-13T06:10:32.398Z,3.84
2019-03-13T06:11:43.083Z,3.84
2019-03-13T06:12:54.266Z,3.83
2019-03-13T06:14:04.969Z,3.82
2019-03-13T06:15:15.629Z,3.82
2019-03-13T06:16:26.321Z,3.83
2019-03-13T06:17:37.016Z,3.81
2019-03-13T06:18:47.708Z,3.79
2019-03-13T06:19:58.393Z,3.78
2019-03-13T06:21:10.075Z,3.76
2019-03-13T06:22:20.792Z,3.75
2019-03-13T06:23:31.629Z,3.74
2019-03-13T06:24:42.328Z,3.73
2019-03-13T06:25:53.007Z,3.74
2019-03-13T06:27:03.700Z,3.74
2019-03-13T06:28:14.402Z,3.78
2019-03-13T06:29:25.081Z,3.83
2019-03-13T06:30:35.774Z,3.91
2019-03-13T06:31:47.763Z,4.01
2019-03-13T06:32:58.452Z,4.09
2019-03-13T06:34:11.465Z,4.13
2019-03-13T06:35:19.848Z,4.17
2019-03-13T06:36:30.569Z,4.22
2019-03-13T06:37:41.336Z,4.26
2019-03-13T06:38:52.017Z,4.29
2019-03-13T06:40:02.669Z,4.31
2019-03-13T06:41:13.366Z,4.32
2019-03-13T06:42:24.066Z,4.33
2019-03-13T06:43:34.756Z,4.36
2019-03-13T06:44:45.456Z,4.38
2019-03-13T06:45:56.160Z,4.42
2019-03-13T06:47:06.878Z,4.47
2019-03-13T06:48:17.588Z,4.49
2019-03-13T06:49:28.289Z,4.49
2019-03-13T06:50:39.006Z,4.50
2019-03-13T06:51:49.683Z,4.50
2019-03-13T06:53:00.393Z,4.52
2019-03-13T06:54:12.091Z,4.56
2019-03-13T06:55:22.781Z,4.61
2019-03-13T06:56:34.479Z,4.70
2019-03-13T06:57:45.184Z,4.84
2019-03-13T06:58:55.891Z,4.97
2019-03-13T07:00:06.598Z,5.14
2019-03-13T07:01:17.315Z,5.28
2019-03-13T07:02:28.037Z,5.36
2019-03-13T07:03:38.739Z,5.41
2019-03-13T07:04:49.445Z,5.47
2019-03-13T07:06:00.151Z,5.51
2019-03-13T07:07:10.866Z,5.53
2019-03-13T07:08:21.588Z,5.53
2019-03-13T07:09:32.296Z,5.57
2019-03-13T07:10:43.014Z,5.66
2019-03-13T07:11:53.917Z,5.76
2019-03-13T07:13:04.647Z,5.81
2019-03-13T07:14:15.362Z,5.88
2019-03-13T07:15:26.075Z,5.95
2019-03-13T07:16:36.792Z,6.04
2019-03-13T07:17:47.525Z,6.15
2019-03-13T07:18:58.258Z,6.24
2019-03-13T07:20:08.979Z,6.31
2019-03-13T07:21:19.711Z,6.38
2019-03-13T07:22:30.433Z,6.42
2019-03-13T07:23:41.172Z,6.45
2019-03-13T07:24:51.894Z,6.48
2019-03-13T07:26:02.624Z,6.46
2019-03-13T07:27:13.349Z,6.45
2019-03-13T07:28:25.085Z,6.45
2019-03-13T07:29:35.824Z,6.40
2019-03-13T07:30:46.569Z,6.37
2019-03-13T07:31:57.296Z,6.36
2019-03-13T07:33:08.035Z,6.34
2019-03-13T07:34:18.840Z,6.31
2019-03-13T07:35:29.519Z,6.31
2019-03-13T07:36:40.249Z,6.30
2019-03-13T07:37:51.470Z,6.29
2019-03-13T07:39:02.213Z,6.30
2019-03-13T07:40:12.936Z,6.31
2019-03-13T07:41:23.676Z,6.35
2019-03-13T07:42:34.405Z,6.42
2019-03-13T07:43:45.148Z,6.59
2019-03-13T07:44:55.888Z,6.75
2019-03-13T07:46:06.620Z,6.84
2019-03-13T07:47:17.361Z,6.96
2019-03-13T07:48:28.107Z,7.08
2019-03-13T07:49:38.857Z,7.19
2019-03-13T07:50:49.606Z,7.28
2019-03-13T07:52:00.347Z,7.38
2019-03-13T07:53:11.091Z,7.42
2019-03-13T07:54:21.852Z,7.43
2019-03-13T07:55:32.589Z,7.40
2019-03-13T07:56:44.335Z,7.34
2019-03-13T07:57:55.093Z,7.35
2019-03-13T07:59:05.858Z,7.48
2019-03-13T08:00:16.606Z,7.54
2019-03-13T08:01:27.368Z,7.46
2019-03-13T08:02:38.129Z,7.26
2019-03-13T08:03:48.887Z,7.07
2019-03-13T08:04:59.641Z,6.90
2019-03-13T08:06:10.386Z,6.78
2019-03-13T08:07:21.145Z,6.72
2019-03-13T08:08:31.897Z,6.76
2019-03-13T08:09:43.680Z,6.95
2019-03-13T08:10:54.439Z,7.27
2019-03-13T08:12:05.187Z,7.57
2019-03-13T08:13:15.949Z,7.75
2019-03-13T08:14:27.697Z,7.94
2019-03-13T08:15:38.965Z,8.11
2019-03-13T08:16:49.738Z,8.17
2019-03-13T08:18:00.503Z,8.21
2019-03-13T08:19:11.269Z,8.29
2019-03-13T08:20:22.629Z,8.48
2019-03-13T08:21:33.395Z,8.58
2019-03-13T08:22:44.173Z,8.49
2019-03-13T08:23:54.940Z,8.36
2019-03-13T08:25:08.083Z,8.21
2019-03-13T08:26:16.632Z,8.04
2019-03-13T08:27:28.416Z,7.95
2019-03-13T08:28:39.182Z,7.85
2019-03-13T08:29:49.958Z,7.70
2019-03-13T08:31:00.737Z,7.53
2019-03-13T08:32:11.512Z,7.45
2019-03-13T08:33:22.284Z,7.41
2019-03-13T08:34:33.084Z,7.42
2019-03-13T08:35:43.862Z,7.46
2019-03-13T08:36:54.629Z,7.47
2019-03-13T08:38:05.596Z,7.48
2019-03-13T08:39:16.376Z,7.52
2019-03-13T08:40:27.140Z,7.58
2019-03-13T08:41:37.924Z,7.62
2019-03-13T08:42:48.695Z,7.69
2019-03-13T08:43:59.462Z,7.73
2019-03-13T08:45:10.236Z,7.78
2019-03-13T08:46:21.017Z,7.92
2019-03-13T08:47:31.800Z,8.12
2019-03-13T08:48:42.580Z,8.23
2019-03-13T08:49:53.369Z,8.31
2019-03-13T08:51:04.160Z,8.42
2019-03-13T08:52:14.945Z,8.49
2019-03-13T08:53:25.732Z,8.55
2019-03-13T08:54:36.513Z,8.74
2019-03-13T08:55:47.463Z,8.89
2019-03-13T08:56:58.271Z,9.00
2019-03-13T08:58:09.055Z,9.02
2019-03-13T08:59:19.850Z,8.91
2019-03-13T09:00:30.654Z,8.87
2019-03-13T09:01:41.770Z,8.89
2019-03-13T09:02:52.566Z,8.92
2019-03-13T09:04:03.362Z,9.04
2019-03-13T09:05:14.155Z,9.26
2019-03-13T09:06:25.255Z,9.51
2019-03-13T09:07:36.058Z,9.82
2019-03-13T09:08:46.875Z,10.14
2019-03-13T09:09:59.166Z,10.35
2019-03-13T09:11:09.980Z,10.44
2019-03-13T09:12:20.806Z,10.69
2019-03-13T09:13:31.626Z,10.92
2019-03-13T09:14:42.641Z,11.07
2019-03-13T09:15:53.465Z,11.10
2019-03-13T09:17:04.306Z,11.04
2019-03-13T09:18:15.142Z,10.99
2019-03-13T09:19:25.982Z,11.06
2019-03-13T09:20:36.818Z,11.00
2019-03-13T09:21:48.652Z,11.03
2019-03-13T09:22:59.497Z,11.06
2019-03-13T09:24:10.346Z,10.97
2019-03-13T09:25:21.208Z,10.83
2019-03-13T09:26:32.057Z,10.78
2019-03-13T09:27:42.910Z,10.78
2019-03-13T09:28:53.758Z,10.70
2019-03-13T09:30:04.598Z,10.70
2019-03-13T09:31:15.458Z,10.69
2019-03-13T09:32:26.330Z,10.67
2019-03-13T09:33:37.249Z,10.53
2019-03-13T09:34:48.019Z,10.55
2019-03-13T09:35:58.867Z,10.54
2019-03-13T09:37:09.724Z,10.57
2019-03-13T09:38:20.579Z,10.63
2019-03-13T09:39:31.431Z,10.55
2019-03-13T09:40:42.284Z,10.40
2019-03-13T09:41:53.129Z,10.29
2019-03-13T09:43:03.978Z,10.21
2019-03-13T09:44:14.836Z,10.12
2019-03-13T09:45:25.675Z,10.02
2019-03-13T09:46:36.525Z,10.00
2019-03-13T09:47:47.374Z,10.04
2019-03-13T09:48:58.234Z,10.04
2019-03-13T09:50:09.077Z,10.10
2019-03-13T09:51:19.921Z,10.20
2019-03-13T09:52:30.766Z,10.24
2019-03-13T09:53:41.631Z,10.27
2019-03-13T09:54:52.640Z,10.27
2019-03-13T09:56:03.486Z,10.29
2019-03-13T09:57:14.351Z,10.27
2019-03-13T09:58:25.210Z,10.26
2019-03-13T09:59:43.227Z,10.27
2019-03-13T10:00:46.918Z,10.32
2019-03-13T10:01:57.775Z,10.44
2019-03-13T10:03:08.618Z,10.53
2019-03-13T10:04:19.507Z,11.00
2019-03-13T10:05:30.360Z,11.53
2019-03-13T10:06:41.215Z,12.00
2019-03-13T10:07:52.079Z,12.01
2019-03-13T10:09:02.949Z,11.83
2019-03-13T10:10:13.806Z,11.92
2019-03-13T10:11:24.672Z,12.11
2019-03-13T10:12:35.549Z,12.14
2019-03-13T10:13:46.444Z,12.24
2019-03-13T10:14:57.316Z,12.20
2019-03-13T10:16:08.199Z,12.05
2019-03-13T10:17:19.067Z,11.90
2019-03-13T10:18:30.436Z,11.71
2019-03-13T10:19:43.307Z,11.71
2019-03-13T10:20:52.214Z,11.73
2019-03-13T10:22:03.104Z,11.84
2019-03-13T10:23:14.188Z,12.14
2019-03-13T10:24:25.070Z,12.33
2019-03-13T10:25:35.949Z,12.38
2019-03-13T10:26:46.838Z,12.39
2019-03-13T10:27:57.725Z,12.61
2019-03-13T10:29:08.637Z,13.23
2019-03-13T10:30:19.529Z,14.10
2019-03-13T10:31:30.425Z,14.49
2019-03-13T10:32:42.329Z,14.47
2019-03-13T10:33:53.233Z,14.50
2019-03-13T10:35:04.152Z,14.51
2019-03-13T10:36:15.086Z,14.47
2019-03-13T10:37:26.020Z,14.62
2019-03-13T10:38:36.939Z,14.65
2019-03-13T10:39:47.873Z,14.48
2019-03-13T10:40:58.812Z,14.31
2019-03-13T10:42:09.772Z,14.05
2019-03-13T10:43:20.680Z,13.88
2019-03-13T10:44:31.940Z,13.74
2019-03-13T10:45:42.870Z,13.43
2019-03-13T10:46:53.800Z,12.93
2019-03-13T10:48:04.731Z,12.54
2019-03-13T10:49:15.660Z,12.32
2019-03-13T10:50:26.611Z,12.31
2019-03-13T10:51:37.528Z,12.24
2019-03-13T10:52:48.634Z,11.95
2019-03-13T10:53:59.558Z,11.65
2019-03-13T10:55:10.638Z,11.46
2019-03-13T10:56:21.550Z,11.34
2019-03-13T10:57:32.632Z,11.39
2019-03-13T10:58:43.529Z,11.56
2019-03-13T10:59:54.458Z,11.60
2019-03-13T11:01:05.363Z,11.84
2019-03-13T11:02:16.269Z,12.21
2019-03-13T11:03:27.185Z,12.57
2019-03-13T11:04:38.106Z,13.06
2019-03-13T11:05:49.025Z,13.38
2019-03-13T11:06:59.952Z,13.54
2019-03-13T11:08:10.880Z,13.55
2019-03-13T11:09:21.800Z,13.29
2019-03-13T11:10:32.731Z,13.03
2019-03-13T11:11:43.656Z,13.24
2019-03-13T11:12:54.579Z,13.15
2019-03-13T11:14:14.878Z,13.07
2019-03-13T11:15:16.438Z,13.13
2019-03-13T11:16:27.379Z,13.12
2019-03-13T11:17:38.310Z,12.77
2019-03-13T11:18:49.244Z,12.56
2019-03-13T11:20:00.260Z,12.34
2019-03-13T11:21:11.090Z,12.09
2019-03-13T11:22:22.005Z,11.86
2019-03-13T11:23:32.953Z,11.66
2019-03-13T11:24:43.872Z,11.45
2019-03-13T11:25:54.785Z,11.40
2019-03-13T11:27:05.716Z,11.60
2019-03-13T11:28:16.626Z,11.93
2019-03-13T11:29:27.538Z,12.20
2019-03-13T11:30:38.439Z,12.61
2019-03-13T11:31:49.354Z,13.23
2019-03-13T11:33:00.268Z,14.08
2019-03-13T11:34:11.190Z,14.76
2019-03-13T11:35:22.155Z,14.67
2019-03-13T11:36:35.075Z,14.41
2019-03-13T11:37:43.979Z,13.84
2019-03-13T11:38:54.900Z,13.45
2019-03-13T11:40:05.825Z,13.15
2019-03-13T11:41:16.769Z,13.02
2019-03-13T11:42:27.690Z,12.89
2019-03-13T11:43:41.189Z,13.08
2019-03-13T11:44:49.545Z,13.51
2019-03-13T11:46:00.626Z,14.46
2019-03-13T11:47:11.578Z,15.72
2019-03-13T11:48:22.529Z,16.45
2019-03-13T11:49:33.489Z,17.51
2019-03-13T11:50:44.627Z,19.19
2019-03-13T11:51:55.614Z,20.02
2019-03-13T11:53:06.615Z,20.61
2019-03-13T11:54:17.616Z,22.91
2019-03-13T11:55:28.643Z,23.56
2019-03-13T11:56:39.695Z,24.06
2019-03-13T11:57:50.756Z,25.47
2019-03-13T11:59:01.821Z,26.10
2019-03-13T12:00:12.908Z,26.79
2019-03-13T12:01:24.014Z,27.93
2019-03-13T12:02:35.144Z,29.14
2019-03-13T12:03:46.292Z,30.40
2019-03-13T12:04:57.464Z,30.24
2019-03-13T12:06:08.639Z,28.98
2019-03-13T12:07:19.833Z,26.64
2019-03-13T12:08:31.012Z,25.07
2019-03-13T12:09:42.197Z,24.63
2019-03-13T12:10:53.365Z,24.63
2019-03-13T12:12:04.562Z,23.88
2019-03-13T12:13:15.713Z,23.65
2019-03-13T12:14:26.883Z,24.07
2019-03-13T12:15:38.056Z,24.17
2019-03-13T12:16:49.245Z,23.20
2019-03-13T12:18:00.419Z,22.10
2019-03-13T12:19:11.585Z,21.11
2019-03-13T12:20:22.739Z,20.89
2019-03-13T12:21:33.882Z,20.06
2019-03-13T12:22:45.024Z,18.76
2019-03-13T12:23:56.142Z,17.56
2019-03-13T12:25:08.248Z,16.42
2019-03-13T12:26:19.343Z,15.21
2019-03-13T12:27:30.441Z,14.30
2019-03-13T12:28:41.506Z,13.63
2019-03-13T12:29:52.580Z,13.12
2019-03-13T12:31:04.628Z,12.64
2019-03-13T12:32:15.656Z,12.25
2019-03-13T12:33:26.681Z,11.96
2019-03-13T12:34:37.678Z,11.74
2019-03-13T12:35:48.683Z,11.48
2019-03-13T12:37:00.659Z,11.26
2019-03-13T12:38:11.640Z,11.15
2019-03-13T12:39:23.612Z,11.17
2019-03-13T12:40:34.583Z,11.26
2019-03-13T12:41:45.543Z,11.35
2019-03-13T12:42:56.648Z,11.38
2019-03-13T12:44:07.609Z,11.81
2019-03-13T12:45:18.580Z,12.55
2019-03-13T12:46:29.529Z,13.67
2019-03-13T12:47:40.496Z,14.23
2019-03-13T12:48:51.457Z,14.58
2019-03-13T12:50:02.436Z,15.68
2019-03-13T12:51:13.426Z,17.23
2019-03-13T12:52:24.432Z,18.66
2019-03-13T12:53:35.466Z,19.83
2019-03-13T12:54:46.499Z,20.21
2019-03-13T12:55:57.558Z,20.66
2019-03-13T12:57:08.618Z,20.88
2019-03-13T12:58:19.697Z,20.67
2019-03-13T12:59:30.784Z,20.56
2019-03-13T13:00:41.865Z,19.89
2019-03-13T13:01:52.954Z,18.57
2019-03-13T13:03:04.034Z,17.28
2019-03-13T13:04:15.101Z,16.18
2019-03-13T13:05:26.161Z,15.38
2019-03-13T13:06:37.703Z,14.81
2019-03-13T13:07:48.737Z,14.27
2019-03-13T13:08:59.775Z,13.90
2019-03-13T13:10:10.794Z,13.36
2019-03-13T13:11:21.801Z,13.02
2019-03-13T13:12:33.292Z,12.93
2019-03-13T13:13:44.645Z,12.98
2019-03-13T13:14:55.650Z,13.24
2019-03-13T13:16:06.626Z,13.25
2019-03-13T13:17:17.614Z,13.49
2019-03-13T13:18:28.607Z,14.77
2019-03-13T13:19:40.628Z,17.04
2019-03-13T13:20:51.636Z,18.23
2019-03-13T13:22:02.660Z,18.14
2019-03-13T13:23:13.686Z,17.73
2019-03-13T13:24:24.715Z,17.41
2019-03-13T13:25:36.736Z,16.87
2019-03-13T13:26:50.015Z,16.76
2019-03-13T13:27:58.783Z,16.53
2019-03-13T13:29:09.811Z,16.25
2019-03-13T13:30:21.832Z,15.86
2019-03-13T13:31:32.843Z,15.36
2019-03-13T13:32:43.858Z,14.89
2019-03-13T13:33:55.364Z,14.60
2019-03-13T13:35:06.876Z,14.23
2019-03-13T13:36:17.873Z,13.75
2019-03-13T13:37:28.869Z,13.24
2019-03-13T13:38:39.847Z,12.66
2019-03-13T13:39:51.324Z,12.22
2019-03-13T13:41:02.801Z,11.89
2019-03-13T13:42:13.755Z,11.53
2019-03-13T13:43:24.703Z,11.14
2019-03-13T13:44:35.652Z,10.83
2019-03-13T13:45:46.600Z,10.50
2019-03-13T13:46:58.009Z,10.24
2019-03-13T13:48:09.421Z,10.05
2019-03-13T13:49:20.833Z,9.90
2019-03-13T13:50:32.251Z,9.76
2019-03-13T13:51:43.155Z,9.62
2019-03-13T13:52:54.051Z,9.47
2019-03-13T13:54:04.938Z,9.36
2019-03-13T13:55:16.314Z,9.25
2019-03-13T13:56:27.199Z,9.14
2019-03-13T13:57:38.625Z,9.06
2019-03-13T13:58:49.502Z,9.02
2019-03-13T14:00:00.477Z,8.97
2019-03-13T14:01:11.254Z,8.98
2019-03-13T14:02:22.135Z,9.03
2019-03-13T14:03:33.486Z,9.09
2019-03-13T14:04:44.842Z,9.18
2019-03-13T14:05:55.704Z,9.26
2019-03-13T14:07:06.566Z,9.35
2019-03-13T14:08:17.430Z,9.43
2019-03-13T14:09:28.295Z,9.45
2019-03-13T14:10:39.643Z,9.43
2019-03-13T14:11:51.000Z,9.39
2019-03-13T14:13:01.852Z,9.36
2019-03-13T14:14:12.720Z,9.34
2019-03-13T14:15:23.579Z,9.41
2019-03-13T14:16:34.442Z,9.62
2019-03-13T14:17:45.783Z,9.73
2019-03-13T14:18:56.629Z,9.82
2019-03-13T14:20:08.055Z,9.96
2019-03-13T14:21:18.851Z,10.14
2019-03-13T14:22:29.711Z,10.31
2019-03-13T14:23:41.067Z,10.41
2019-03-13T14:24:51.919Z,10.30
2019-03-13T14:26:02.774Z,10.14
2019-03-13T14:27:15.104Z,9.99
2019-03-13T14:28:25.303Z,9.87
2019-03-13T14:29:36.643Z,9.81
2019-03-13T14:30:47.982Z,9.87
2019-03-13T14:31:58.840Z,10.09
2019-03-13T14:33:10.197Z,10.43
2019-03-13T14:34:21.061Z,10.84
2019-03-13T14:35:31.926Z,11.29
2019-03-13T14:36:44.289Z,11.78
2019-03-13T14:37:55.649Z,12.02
2019-03-13T14:39:07.022Z,11.93
2019-03-13T14:40:17.934Z,11.88
2019-03-13T14:41:29.804Z,11.87
2019-03-13T14:42:40.691Z,11.92
2019-03-13T14:43:51.577Z,11.99
2019-03-13T14:45:02.954Z,12.25
2019-03-13T14:46:13.844Z,12.95
2019-03-13T14:47:25.247Z,13.12
2019-03-13T14:48:36.149Z,12.93
2019-03-13T14:49:47.534Z,12.62
2019-03-13T14:50:58.937Z,12.27
2019-03-13T14:52:10.326Z,12.09
2019-03-13T14:53:21.714Z,11.89
2019-03-13T14:54:32.618Z,11.81
2019-03-13T14:55:43.506Z,11.79
2019-03-13T14:56:54.406Z,11.69
2019-03-13T14:58:05.301Z,11.47
2019-03-13T14:59:16.188Z,11.30
2019-03-13T15:00:27.078Z,11.26
2019-03-13T15:01:37.974Z,11.16
2019-03-13T15:02:48.868Z,11.01
2019-03-13T15:04:00.267Z,10.90
2019-03-13T15:05:11.138Z,10.75
2019-03-13T15:06:22.022Z,10.51
2019-03-13T15:07:32.928Z,10.33
2019-03-13T15:08:43.800Z,10.09
2019-03-13T15:09:55.174Z,9.83
2019-03-13T15:11:06.035Z,9.53
2019-03-13T15:12:17.398Z,9.27
2019-03-13T15:13:28.744Z,9.06
2019-03-13T15:14:39.602Z,8.89
2019-03-13T15:15:50.951Z,8.76
2019-03-13T15:17:01.805Z,8.69
2019-03-13T15:18:12.852Z,8.67
2019-03-13T15:19:23.686Z,8.70
2019-03-13T15:20:34.529Z,8.78
2019-03-13T15:21:45.372Z,8.85
2019-03-13T15:22:56.221Z,8.87
2019-03-13T15:24:07.074Z,8.89
2019-03-13T15:25:17.909Z,8.95
2019-03-13T15:26:28.743Z,9.00
2019-03-13T15:27:40.074Z,9.07
2019-03-13T15:28:50.904Z,9.10
2019-03-13T15:30:01.734Z,9.07
2019-03-13T15:31:12.565Z,9.00
2019-03-13T15:32:23.882Z,8.96